RYR3PY BIRK-EDDL
Flight info
| Callsign | RYR3PY |
|---|---|
| Flight time | N/A |
| Altitude | 37000 |
| Route | EL DCT RATSU/N0458F330 DCT BAMRA DCT FORTY DCT PAM DCT PISAP PISAP1A |
| Aircraft | B738/M-SDE2E3FGHIRWXY/LB1 |
Departure
| Time | 2026-04-27 16:41 |
|---|---|
| Airport | Reykjavík Domestic Airport (BIRK) |
Arrival
| Time | N/A |
|---|---|
| Airport | Düsseldorf Airport (EDDL) |
| Time | Latitude | Longitude | Altitude | Speed | Heading |
|---|---|---|---|---|---|
| 2026-04-27 16:08 | 64.13160 | -21.94578 | 35 ft | 0 kts | 354° |
| 2026-04-27 16:33 | 64.13153 | -21.94578 | 35 ft | 4 kts | 322° |
| 2026-04-27 16:34 | 64.13152 | -21.94576 | 35 ft | 4 kts | 257° |
| 2026-04-27 16:34 | 64.13154 | -21.94528 | 35 ft | 3 kts | 274° |
| 2026-04-27 16:34 | 64.13158 | -21.94471 | 35 ft | 4 kts | 262° |
| 2026-04-27 16:34 | 64.13160 | -21.94410 | 33 ft | 4 kts | 269° |
| 2026-04-27 16:35 | 64.13159 | -21.94349 | 35 ft | 4 kts | 277° |
| 2026-04-27 16:35 | 64.13154 | -21.94289 | 37 ft | 4 kts | 293° |
| 2026-04-27 16:35 | 64.13134 | -21.94240 | 34 ft | 1 kts | 349° |
| 2026-04-27 16:38 | 64.13137 | -21.94234 | 35 ft | 1 kts | 32° |
| 2026-04-27 16:38 | 64.13140 | -21.94210 | 38 ft | 3 kts | 79° |
| 2026-04-27 16:38 | 64.13143 | -21.94137 | 38 ft | 6 kts | 83° |
| 2026-04-27 16:39 | 64.13148 | -21.94014 | 39 ft | 9 kts | 85° |
| 2026-04-27 16:39 | 64.13148 | -21.93844 | 37 ft | 12 kts | 108° |
| 2026-04-27 16:39 | 64.13148 | -21.93663 | 38 ft | 14 kts | 53° |
| 2026-04-27 16:39 | 64.13244 | -21.93577 | 37 ft | 18 kts | 358° |
| 2026-04-27 16:40 | 64.13379 | -21.93598 | 37 ft | 21 kts | 355° |
| 2026-04-27 16:40 | 64.13528 | -21.93628 | 37 ft | 17 kts | 350° |
| 2026-04-27 16:40 | 64.13615 | -21.93773 | 37 ft | 5 kts | 309° |
| 2026-04-27 16:40 | 64.13616 | -21.93866 | 37 ft | 8 kts | 223° |
| 2026-04-27 16:41 | 64.13575 | -21.93880 | 37 ft | 19 kts | 179° |
| 2026-04-27 16:41 | 64.13199 | -21.93813 | 38 ft | 85 kts | 175° |
| 2026-04-27 16:41 | 64.12439 | -21.93671 | 63 ft | 131 kts | 174° |
| 2026-04-27 16:41 | 64.11587 | -21.93551 | 783 ft | 115 kts | 177° |
| 2026-04-27 16:42 | 64.10824 | -21.92953 | 1144 ft | 129 kts | 131° |
| 2026-04-27 16:42 | 64.10611 | -21.90818 | 1626 ft | 144 kts | 103° |
| 2026-04-27 16:42 | 64.10379 | -21.88580 | 2219 ft | 144 kts | 116° |
| 2026-04-27 16:42 | 64.10021 | -21.86422 | 2844 ft | 146 kts | 120° |
| 2026-04-27 16:43 | 64.09628 | -21.84227 | 3372 ft | 159 kts | 118° |
| 2026-04-27 16:43 | 64.09192 | -21.81654 | 3600 ft | 186 kts | 117° |
| 2026-04-27 16:43 | 64.08701 | -21.78729 | 3796 ft | 209 kts | 117° |
| 2026-04-27 16:43 | 64.08166 | -21.75509 | 4192 ft | 222 kts | 116° |
| 2026-04-27 16:44 | 64.07590 | -21.72056 | 4494 ft | 242 kts | 116° |
| 2026-04-27 16:44 | 64.06990 | -21.68440 | 5159 ft | 249 kts | 117° |
| 2026-04-27 16:44 | 64.06373 | -21.64720 | 5926 ft | 254 kts | 117° |
| 2026-04-27 16:44 | 64.05735 | -21.60892 | 6576 ft | 261 kts | 116° |
| 2026-04-27 16:45 | 64.05087 | -21.57010 | 7346 ft | 263 kts | 116° |
| 2026-04-27 16:45 | 64.04431 | -21.53089 | 8082 ft | 266 kts | 116° |
| 2026-04-27 16:45 | 64.03764 | -21.49116 | 8798 ft | 270 kts | 116° |
| 2026-04-27 16:45 | 64.03086 | -21.45082 | 9541 ft | 274 kts | 116° |
| 2026-04-27 16:46 | 64.02394 | -21.40986 | 10187 ft | 281 kts | 116° |
| 2026-04-27 16:46 | 64.01657 | -21.36667 | 10393 ft | 304 kts | 116° |
| 2026-04-27 16:46 | 64.00861 | -21.32013 | 10566 ft | 326 kts | 115° |
| 2026-04-27 16:46 | 64.00011 | -21.27050 | 10748 ft | 346 kts | 115° |
| 2026-04-27 16:47 | 63.99114 | -21.21804 | 10989 ft | 363 kts | 115° |
| 2026-04-27 16:47 | 63.98186 | -21.16374 | 11512 ft | 371 kts | 115° |
| 2026-04-27 16:47 | 63.97245 | -21.10873 | 12144 ft | 375 kts | 115° |
| 2026-04-27 16:47 | 63.96283 | -21.05266 | 12509 ft | 388 kts | 115° |
| 2026-04-27 16:48 | 63.95281 | -20.99468 | 12887 ft | 398 kts | 115° |
| 2026-04-27 16:48 | 63.94261 | -20.93568 | 13409 ft | 403 kts | 115° |
| 2026-04-27 16:48 | 63.93248 | -20.87736 | 13961 ft | 407 kts | 115° |
| 2026-04-27 16:49 | 63.91146 | -20.75675 | 15041 ft | 413 kts | 115° |
| 2026-04-27 16:49 | 63.90079 | -20.69588 | 15557 ft | 417 kts | 115° |
| 2026-04-27 16:49 | 63.88997 | -20.63443 | 16083 ft | 420 kts | 114° |
| 2026-04-27 16:49 | 63.87906 | -20.57263 | 16579 ft | 424 kts | 115° |
| 2026-04-27 16:50 | 63.86804 | -20.51040 | 17094 ft | 427 kts | 114° |
| 2026-04-27 16:50 | 63.85688 | -20.44766 | 17594 ft | 430 kts | 114° |
| 2026-04-27 16:50 | 63.84563 | -20.38453 | 18066 ft | 434 kts | 114° |
| 2026-04-27 16:50 | 63.83425 | -20.32092 | 18498 ft | 437 kts | 114° |
| 2026-04-27 16:51 | 63.82275 | -20.25686 | 18921 ft | 440 kts | 114° |
| 2026-04-27 16:51 | 63.81113 | -20.19234 | 19326 ft | 443 kts | 114° |
| 2026-04-27 16:51 | 63.79944 | -20.12761 | 19728 ft | 446 kts | 114° |
| 2026-04-27 16:51 | 63.78762 | -20.06241 | 20124 ft | 450 kts | 114° |
| 2026-04-27 16:52 | 63.77570 | -19.99687 | 20524 ft | 452 kts | 114° |
| 2026-04-27 16:52 | 63.76368 | -19.93100 | 20925 ft | 455 kts | 114° |
| 2026-04-27 16:52 | 63.75152 | -19.86460 | 21295 ft | 458 kts | 114° |
| 2026-04-27 16:52 | 63.73926 | -19.79790 | 21668 ft | 461 kts | 114° |
| 2026-04-27 16:53 | 63.72691 | -19.73094 | 22075 ft | 463 kts | 115° |
| 2026-04-27 16:53 | 63.71446 | -19.66363 | 22450 ft | 466 kts | 115° |
| 2026-04-27 16:53 | 63.70192 | -19.59604 | 22800 ft | 468 kts | 115° |
| 2026-04-27 16:53 | 63.68927 | -19.52821 | 23163 ft | 471 kts | 115° |
| 2026-04-27 16:54 | 63.67650 | -19.46002 | 23501 ft | 473 kts | 115° |
| 2026-04-27 16:54 | 63.66370 | -19.39168 | 23858 ft | 473 kts | 115° |
| 2026-04-27 16:54 | 63.65083 | -19.32336 | 24116 ft | 476 kts | 115° |
| 2026-04-27 16:54 | 63.63798 | -19.25532 | 24352 ft | 479 kts | 115° |
| 2026-04-27 16:55 | 63.62493 | -19.18641 | 24690 ft | 480 kts | 115° |
| 2026-04-27 16:55 | 63.61176 | -19.11703 | 24862 ft | 484 kts | 115° |
| 2026-04-27 16:55 | 63.59847 | -19.04737 | 25158 ft | 485 kts | 115° |
| 2026-04-27 16:55 | 63.58512 | -18.97758 | 25373 ft | 488 kts | 115° |
| 2026-04-27 16:56 | 63.57171 | -18.90777 | 25739 ft | 487 kts | 115° |
| 2026-04-27 16:56 | 63.55831 | -18.83821 | 26123 ft | 485 kts | 115° |
| 2026-04-27 16:56 | 63.54488 | -18.76875 | 26458 ft | 486 kts | 115° |
| 2026-04-27 16:56 | 63.53138 | -18.69921 | 26742 ft | 487 kts | 115° |
| 2026-04-27 16:57 | 63.51785 | -18.62975 | 27082 ft | 487 kts | 115° |
| 2026-04-27 16:57 | 63.50428 | -18.56035 | 27420 ft | 486 kts | 115° |
| 2026-04-27 16:57 | 63.49067 | -18.49095 | 27769 ft | 486 kts | 115° |
| 2026-04-27 16:57 | 63.47706 | -18.42179 | 28104 ft | 486 kts | 115° |
| 2026-04-27 16:58 | 63.46340 | -18.35261 | 28430 ft | 486 kts | 115° |
| 2026-04-27 16:58 | 63.44970 | -18.28350 | 28764 ft | 486 kts | 115° |
| 2026-04-27 16:58 | 63.43598 | -18.21448 | 29122 ft | 486 kts | 115° |
| 2026-04-27 16:58 | 63.42224 | -18.14558 | 29477 ft | 485 kts | 115° |
| 2026-04-27 16:59 | 63.40846 | -18.07676 | 29826 ft | 485 kts | 115° |
| 2026-04-27 16:59 | 63.39467 | -18.00811 | 30164 ft | 485 kts | 115° |
| 2026-04-27 16:59 | 63.38086 | -17.93958 | 30429 ft | 484 kts | 115° |
| 2026-04-27 16:59 | 63.36723 | -17.87214 | 30708 ft | 484 kts | 115° |
| 2026-04-27 17:00 | 63.34402 | -17.75788 | 31219 ft | 482 kts | 115° |
| 2026-04-27 17:00 | 63.32568 | -17.66798 | 31575 ft | 481 kts | 116° |
| 2026-04-27 17:00 | 63.31181 | -17.60029 | 31833 ft | 481 kts | 116° |
| 2026-04-27 17:01 | 63.29791 | -17.53264 | 32093 ft | 481 kts | 116° |
| 2026-04-27 17:01 | 63.28398 | -17.46510 | 32351 ft | 480 kts | 116° |
| 2026-04-27 17:01 | 63.27003 | -17.39769 | 32600 ft | 480 kts | 116° |
| 2026-04-27 17:01 | 63.25605 | -17.33031 | 32838 ft | 480 kts | 116° |
| 2026-04-27 17:02 | 63.24203 | -17.26299 | 33077 ft | 480 kts | 116° |
| 2026-04-27 17:02 | 63.22801 | -17.19588 | 33314 ft | 480 kts | 116° |
| 2026-04-27 17:02 | 63.21395 | -17.12880 | 33554 ft | 480 kts | 116° |
| 2026-04-27 17:02 | 63.19987 | -17.06180 | 33787 ft | 479 kts | 116° |
| 2026-04-27 17:03 | 63.18576 | -16.99491 | 34025 ft | 479 kts | 116° |
| 2026-04-27 17:03 | 63.17163 | -16.92807 | 34226 ft | 479 kts | 116° |
| 2026-04-27 17:03 | 63.15746 | -16.86137 | 34384 ft | 479 kts | 116° |
| 2026-04-27 17:03 | 63.14326 | -16.79468 | 34559 ft | 479 kts | 116° |
| 2026-04-27 17:04 | 63.12904 | -16.72814 | 34747 ft | 479 kts | 116° |
| 2026-04-27 17:04 | 63.11479 | -16.66167 | 34947 ft | 478 kts | 116° |
| 2026-04-27 17:04 | 63.10053 | -16.59536 | 35094 ft | 479 kts | 116° |
| 2026-04-27 17:04 | 63.08619 | -16.52888 | 35252 ft | 479 kts | 117° |
| 2026-04-27 17:05 | 63.07185 | -16.46260 | 35397 ft | 479 kts | 117° |
| 2026-04-27 17:05 | 63.05748 | -16.39637 | 35563 ft | 479 kts | 117° |
| 2026-04-27 17:05 | 63.04308 | -16.33023 | 35729 ft | 478 kts | 117° |
| 2026-04-27 17:05 | 63.03353 | -16.28646 | 35839 ft | 478 kts | 117° |
| 2026-04-27 17:06 | 63.01419 | -16.19815 | 36009 ft | 479 kts | 117° |
| 2026-04-27 17:06 | 62.99971 | -16.13225 | 36165 ft | 479 kts | 117° |
| 2026-04-27 17:06 | 62.98515 | -16.06622 | 36317 ft | 478 kts | 117° |
| 2026-04-27 17:06 | 62.97079 | -16.00127 | 36466 ft | 479 kts | 117° |
| 2026-04-27 17:07 | 62.95620 | -15.93549 | 36608 ft | 478 kts | 117° |
| 2026-04-27 17:07 | 62.94162 | -15.86993 | 36785 ft | 477 kts | 117° |
| 2026-04-27 17:07 | 62.92702 | -15.80453 | 36978 ft | 476 kts | 117° |
| 2026-04-27 17:07 | 62.91246 | -15.73948 | 37139 ft | 475 kts | 117° |
| 2026-04-27 17:08 | 62.89783 | -15.67430 | 37114 ft | 475 kts | 118° |
| 2026-04-27 17:08 | 62.86870 | -15.54514 | 37130 ft | 471 kts | 118° |
| 2026-04-27 17:09 | 62.83964 | -15.41708 | 37135 ft | 468 kts | 118° |
| 2026-04-27 17:09 | 62.81063 | -15.29001 | 37146 ft | 466 kts | 118° |
| 2026-04-27 17:10 | 62.78159 | -15.16357 | 37146 ft | 465 kts | 118° |
| 2026-04-27 17:10 | 62.75245 | -15.03742 | 37159 ft | 465 kts | 118° |
| 2026-04-27 17:11 | 62.72317 | -14.91143 | 37156 ft | 466 kts | 118° |
| 2026-04-27 17:11 | 62.67906 | -14.72296 | 37177 ft | 469 kts | 118° |
| 2026-04-27 17:12 | 62.63428 | -14.53327 | 37184 ft | 471 kts | 119° |
| 2026-04-27 17:13 | 62.60415 | -14.40656 | 37177 ft | 473 kts | 119° |
| 2026-04-27 17:13 | 62.57380 | -14.27967 | 37197 ft | 474 kts | 119° |
| 2026-04-27 17:14 | 62.54329 | -14.15285 | 37191 ft | 475 kts | 119° |
| 2026-04-27 17:14 | 62.51262 | -14.02611 | 37195 ft | 475 kts | 119° |
| 2026-04-27 17:15 | 62.48182 | -13.89957 | 37191 ft | 475 kts | 119° |
| 2026-04-27 17:15 | 62.45096 | -13.77352 | 37206 ft | 474 kts | 120° |
| 2026-04-27 17:16 | 62.42025 | -13.64880 | 37200 ft | 473 kts | 120° |
| 2026-04-27 17:16 | 62.38931 | -13.52384 | 37212 ft | 472 kts | 120° |
| 2026-04-27 17:17 | 62.35829 | -13.39928 | 37221 ft | 471 kts | 120° |
| 2026-04-27 17:17 | 62.32724 | -13.27528 | 37223 ft | 470 kts | 120° |
| 2026-04-27 17:18 | 62.28054 | -13.09010 | 37226 ft | 469 kts | 120° |
| 2026-04-27 17:18 | 62.24932 | -12.96718 | 37233 ft | 469 kts | 120° |
| 2026-04-27 17:19 | 62.21802 | -12.84462 | 37235 ft | 468 kts | 120° |
| 2026-04-27 17:19 | 62.18662 | -12.72234 | 37244 ft | 469 kts | 120° |
| 2026-04-27 17:20 | 62.16043 | -12.62085 | 37244 ft | 469 kts | 120° |
| 2026-04-27 17:20 | 62.12878 | -12.49884 | 37251 ft | 469 kts | 120° |
| 2026-04-27 17:21 | 62.09696 | -12.37683 | 37254 ft | 470 kts | 121° |
| 2026-04-27 17:21 | 62.06501 | -12.25498 | 37262 ft | 471 kts | 121° |
| 2026-04-27 17:22 | 62.03294 | -12.13333 | 37257 ft | 471 kts | 121° |
| 2026-04-27 17:22 | 62.00071 | -12.01175 | 37269 ft | 472 kts | 121° |
| 2026-04-27 17:23 | 61.96833 | -11.89027 | 37273 ft | 472 kts | 121° |
| 2026-04-27 17:23 | 61.93579 | -11.76887 | 37274 ft | 473 kts | 121° |
| 2026-04-27 17:24 | 61.90316 | -11.64774 | 37271 ft | 473 kts | 121° |
| 2026-04-27 17:24 | 61.87041 | -11.52685 | 37282 ft | 473 kts | 121° |
| 2026-04-27 17:25 | 61.83754 | -11.40618 | 37284 ft | 473 kts | 121° |
| 2026-04-27 17:25 | 61.80457 | -11.28577 | 37291 ft | 473 kts | 121° |
| 2026-04-27 17:26 | 61.77171 | -11.16641 | 37289 ft | 473 kts | 121° |
| 2026-04-27 17:26 | 61.73855 | -11.04658 | 37297 ft | 473 kts | 121° |
| 2026-04-27 17:27 | 61.70527 | -10.92694 | 37299 ft | 473 kts | 121° |
| 2026-04-27 17:27 | 61.67189 | -10.80760 | 37303 ft | 473 kts | 121° |
| 2026-04-27 17:28 | 61.63843 | -10.68858 | 37307 ft | 472 kts | 121° |
| 2026-04-27 17:29 | 61.59236 | -10.52573 | 37296 ft | 472 kts | 122° |
| 2026-04-27 17:29 | 61.55870 | -10.40751 | 37319 ft | 472 kts | 122° |
| 2026-04-27 17:30 | 61.52495 | -10.28959 | 36925 ft | 471 kts | 120° |
| 2026-04-27 17:30 | 61.49129 | -10.17257 | 37327 ft | 468 kts | 120° |
| 2026-04-27 17:30 | 61.47439 | -10.11401 | 37313 ft | 472 kts | 120° |
| 2026-04-27 17:31 | 61.44022 | -9.99609 | 37339 ft | 477 kts | 120° |
| 2026-04-27 17:31 | 61.40558 | -9.87719 | 37343 ft | 482 kts | 120° |
| 2026-04-27 17:32 | 61.35273 | -9.69701 | 37339 ft | 488 kts | 120° |
| 2026-04-27 17:33 | 61.31709 | -9.57629 | 37346 ft | 490 kts | 120° |
| 2026-04-27 17:33 | 61.28121 | -9.45541 | 37343 ft | 492 kts | 120° |
| 2026-04-27 17:34 | 61.24515 | -9.33456 | 37340 ft | 492 kts | 120° |
| 2026-04-27 17:34 | 61.20905 | -9.21420 | 37339 ft | 491 kts | 120° |
| 2026-04-27 17:35 | 61.17295 | -9.09447 | 37357 ft | 489 kts | 120° |
| 2026-04-27 17:35 | 61.13682 | -8.97526 | 37347 ft | 487 kts | 120° |
| 2026-04-27 17:36 | 61.10075 | -8.85687 | 37350 ft | 485 kts | 120° |
| 2026-04-27 17:36 | 61.06492 | -8.73988 | 37358 ft | 484 kts | 120° |
| 2026-04-27 17:37 | 61.02890 | -8.62284 | 37358 ft | 482 kts | 120° |
| 2026-04-27 17:37 | 60.99287 | -8.50635 | 37357 ft | 481 kts | 120° |
| 2026-04-27 17:38 | 60.95682 | -8.39039 | 37367 ft | 481 kts | 120° |
| 2026-04-27 17:38 | 60.92065 | -8.27462 | 37379 ft | 481 kts | 120° |
| 2026-04-27 17:39 | 60.88434 | -8.15900 | 37371 ft | 482 kts | 120° |
| 2026-04-27 17:39 | 60.84788 | -8.04348 | 37370 ft | 483 kts | 120° |
| 2026-04-27 17:40 | 60.81127 | -7.92806 | 37373 ft | 483 kts | 120° |
| 2026-04-27 17:40 | 60.77449 | -7.81269 | 37377 ft | 484 kts | 120° |
| 2026-04-27 17:41 | 60.73757 | -7.69745 | 37376 ft | 485 kts | 120° |
| 2026-04-27 17:41 | 60.70051 | -7.58234 | 37377 ft | 485 kts | 120° |
| 2026-04-27 17:42 | 60.66332 | -7.46741 | 37380 ft | 485 kts | 120° |
| 2026-04-27 17:42 | 60.62602 | -7.35270 | 37379 ft | 486 kts | 120° |
| 2026-04-27 17:43 | 60.58860 | -7.23821 | 37380 ft | 485 kts | 120° |
| 2026-04-27 17:43 | 60.55112 | -7.12409 | 37380 ft | 485 kts | 120° |
| 2026-04-27 17:44 | 60.51358 | -7.01033 | 37382 ft | 485 kts | 120° |
| 2026-04-27 17:44 | 60.47621 | -6.89767 | 37382 ft | 484 kts | 120° |
| 2026-04-27 17:45 | 60.43857 | -6.78472 | 37384 ft | 483 kts | 120° |
| 2026-04-27 17:45 | 60.40093 | -6.67231 | 37385 ft | 482 kts | 120° |
| 2026-04-27 17:46 | 60.36321 | -6.56020 | 37389 ft | 482 kts | 120° |
| 2026-04-27 17:46 | 60.32548 | -6.44860 | 37388 ft | 481 kts | 120° |
| 2026-04-27 17:47 | 60.28767 | -6.33730 | 37392 ft | 480 kts | 120° |
| 2026-04-27 17:47 | 60.24988 | -6.22660 | 37394 ft | 480 kts | 120° |
| 2026-04-27 17:48 | 60.21199 | -6.11612 | 37390 ft | 479 kts | 120° |
| 2026-04-27 17:48 | 60.17406 | -6.00605 | 37393 ft | 479 kts | 120° |
| 2026-04-27 17:49 | 60.13598 | -5.89605 | 37394 ft | 479 kts | 120° |
| 2026-04-27 17:49 | 60.09786 | -5.78646 | 37398 ft | 479 kts | 120° |
| 2026-04-27 17:50 | 60.05959 | -5.67694 | 37396 ft | 480 kts | 120° |
| 2026-04-27 17:50 | 60.00194 | -5.51296 | 37398 ft | 481 kts | 120° |
| 2026-04-27 17:51 | 59.96335 | -5.40381 | 37400 ft | 481 kts | 120° |
| 2026-04-27 17:51 | 59.92465 | -5.29485 | 37401 ft | 482 kts | 120° |
| 2026-04-27 17:52 | 59.88605 | -5.18669 | 37400 ft | 483 kts | 120° |
| 2026-04-27 17:52 | 59.85336 | -5.09548 | 37400 ft | 483 kts | 120° |
| 2026-04-27 17:53 | 59.80787 | -4.96916 | 37398 ft | 484 kts | 121° |
| 2026-04-27 17:53 | 59.76860 | -4.86065 | 37402 ft | 484 kts | 121° |
| 2026-04-27 17:54 | 59.72921 | -4.75230 | 37401 ft | 484 kts | 121° |
| 2026-04-27 17:54 | 59.68971 | -4.64416 | 37399 ft | 484 kts | 121° |
| 2026-04-27 17:55 | 59.65012 | -4.53627 | 37405 ft | 484 kts | 121° |
| 2026-04-27 17:55 | 59.61053 | -4.42885 | 37404 ft | 484 kts | 121° |
| 2026-04-27 17:56 | 59.57081 | -4.32158 | 37392 ft | 483 kts | 121° |
| 2026-04-27 17:56 | 59.53107 | -4.21472 | 37399 ft | 483 kts | 121° |
| 2026-04-27 17:57 | 59.49129 | -4.10823 | 37402 ft | 483 kts | 121° |
| 2026-04-27 17:57 | 59.45168 | -4.00263 | 37400 ft | 483 kts | 121° |
| 2026-04-27 17:58 | 59.41377 | -3.89361 | 37406 ft | 477 kts | 115° |
| 2026-04-27 17:58 | 59.38079 | -3.78167 | 37404 ft | 476 kts | 113° |
| 2026-04-27 17:59 | 59.34803 | -3.66879 | 37405 ft | 477 kts | 114° |
| 2026-04-27 17:59 | 59.31472 | -3.55625 | 37409 ft | 478 kts | 114° |
| 2026-04-27 18:00 | 59.28098 | -3.44395 | 37408 ft | 480 kts | 114° |
| 2026-04-27 18:00 | 59.24695 | -3.33160 | 37407 ft | 481 kts | 114° |
| 2026-04-27 18:01 | 59.21271 | -3.21912 | 37412 ft | 482 kts | 114° |
| 2026-04-27 18:01 | 59.17830 | -3.10654 | 37406 ft | 483 kts | 114° |
| 2026-04-27 18:02 | 59.14372 | -2.99393 | 37409 ft | 484 kts | 114° |
| 2026-04-27 18:02 | 59.10900 | -2.88139 | 37403 ft | 485 kts | 114° |
| 2026-04-27 18:03 | 59.07415 | -2.76901 | 37405 ft | 485 kts | 114° |
| 2026-04-27 18:03 | 59.03921 | -2.65686 | 37404 ft | 485 kts | 114° |
| 2026-04-27 18:04 | 59.00417 | -2.54492 | 37406 ft | 485 kts | 114° |
| 2026-04-27 18:04 | 58.96900 | -2.43310 | 37403 ft | 485 kts | 114° |
| 2026-04-27 18:05 | 58.93378 | -2.32166 | 37403 ft | 485 kts | 114° |
| 2026-04-27 18:05 | 58.90441 | -2.22913 | 37403 ft | 485 kts | 114° |
| 2026-04-27 18:06 | 58.86901 | -2.11809 | 37406 ft | 485 kts | 115° |
| 2026-04-27 18:06 | 58.82781 | -1.98952 | 37407 ft | 484 kts | 115° |
| 2026-04-27 18:07 | 58.79802 | -1.89699 | 37404 ft | 484 kts | 115° |
| 2026-04-27 18:07 | 58.76265 | -1.78761 | 37406 ft | 483 kts | 115° |
| 2026-04-27 18:08 | 58.72702 | -1.67792 | 37407 ft | 482 kts | 115° |
| 2026-04-27 18:08 | 58.69142 | -1.56884 | 37397 ft | 481 kts | 115° |
| 2026-04-27 18:09 | 58.65581 | -1.46026 | 37408 ft | 479 kts | 115° |
| 2026-04-27 18:09 | 58.62021 | -1.35215 | 37402 ft | 478 kts | 115° |
| 2026-04-27 18:10 | 58.58458 | -1.24447 | 37406 ft | 477 kts | 115° |
| 2026-04-27 18:10 | 58.54899 | -1.13739 | 37409 ft | 477 kts | 115° |
| 2026-04-27 18:11 | 58.51328 | -1.03043 | 37409 ft | 476 kts | 116° |
| 2026-04-27 18:11 | 58.48205 | -0.93728 | 37406 ft | 476 kts | 116° |
| 2026-04-27 18:12 | 58.44629 | -0.83109 | 37406 ft | 475 kts | 116° |
| 2026-04-27 18:12 | 58.41044 | -0.72508 | 37407 ft | 475 kts | 116° |
| 2026-04-27 18:13 | 58.37448 | -0.61924 | 37409 ft | 476 kts | 116° |
| 2026-04-27 18:13 | 58.33869 | -0.51435 | 37413 ft | 476 kts | 116° |
| 2026-04-27 18:14 | 58.30252 | -0.40883 | 37415 ft | 476 kts | 117° |
| 2026-04-27 18:14 | 58.26624 | -0.30344 | 37418 ft | 477 kts | 117° |
| 2026-04-27 18:15 | 58.22984 | -0.19821 | 37418 ft | 477 kts | 117° |
| 2026-04-27 18:15 | 58.19332 | -0.09306 | 37419 ft | 477 kts | 117° |
| 2026-04-27 18:16 | 58.15673 | 0.01182 | 37413 ft | 477 kts | 117° |
| 2026-04-27 18:16 | 58.12006 | 0.11644 | 37416 ft | 477 kts | 117° |
| 2026-04-27 18:17 | 58.08336 | 0.22072 | 37416 ft | 476 kts | 118° |
| 2026-04-27 18:17 | 58.04659 | 0.32477 | 37417 ft | 476 kts | 118° |
| 2026-04-27 18:18 | 58.00975 | 0.42862 | 37416 ft | 476 kts | 118° |
| 2026-04-27 18:18 | 57.97253 | 0.53179 | 37412 ft | 478 kts | 123° |
| 2026-04-27 18:19 | 57.92382 | 0.61873 | 37422 ft | 489 kts | 141° |
| 2026-04-27 18:19 | 57.86354 | 0.67994 | 37420 ft | 494 kts | 150° |
| 2026-04-27 18:20 | 57.80154 | 0.73571 | 37421 ft | 494 kts | 150° |
| 2026-04-27 18:20 | 57.73960 | 0.79182 | 37414 ft | 494 kts | 150° |
| 2026-04-27 18:21 | 57.67789 | 0.84847 | 37413 ft | 494 kts | 150° |
| 2026-04-27 18:21 | 57.61634 | 0.90517 | 37411 ft | 493 kts | 150° |
| 2026-04-27 18:22 | 57.55521 | 0.96130 | 37409 ft | 493 kts | 150° |
| 2026-04-27 18:22 | 57.49364 | 1.01757 | 37409 ft | 492 kts | 150° |
| 2026-04-27 18:23 | 57.43220 | 1.07349 | 37406 ft | 492 kts | 150° |
| 2026-04-27 18:23 | 57.37077 | 1.12918 | 37406 ft | 491 kts | 150° |
| 2026-04-27 18:24 | 57.30943 | 1.18458 | 37411 ft | 491 kts | 150° |
| 2026-04-27 18:24 | 57.24810 | 1.23976 | 37404 ft | 490 kts | 150° |
| 2026-04-27 18:25 | 57.18720 | 1.29436 | 37403 ft | 490 kts | 151° |
| 2026-04-27 18:25 | 57.12584 | 1.34916 | 37400 ft | 489 kts | 151° |
| 2026-04-27 18:26 | 57.06451 | 1.40375 | 37394 ft | 489 kts | 151° |
| 2026-04-27 18:26 | 57.00322 | 1.45809 | 37396 ft | 489 kts | 151° |
| 2026-04-27 18:27 | 56.94195 | 1.51221 | 37392 ft | 488 kts | 151° |
| 2026-04-27 18:27 | 56.88074 | 1.56608 | 37393 ft | 488 kts | 151° |
| 2026-04-27 18:28 | 56.81951 | 1.61978 | 37393 ft | 488 kts | 152° |
| 2026-04-27 18:28 | 56.75828 | 1.67328 | 37391 ft | 488 kts | 152° |
| 2026-04-27 18:29 | 56.69708 | 1.72656 | 37394 ft | 488 kts | 152° |
| 2026-04-27 18:29 | 56.63619 | 1.77937 | 37384 ft | 488 kts | 152° |
| 2026-04-27 18:30 | 56.57500 | 1.83226 | 37387 ft | 488 kts | 152° |
| 2026-04-27 18:30 | 56.51366 | 1.88509 | 37384 ft | 488 kts | 152° |
| 2026-04-27 18:31 | 56.45235 | 1.93770 | 37381 ft | 488 kts | 152° |
| 2026-04-27 18:31 | 56.39096 | 1.99019 | 37383 ft | 488 kts | 152° |
| 2026-04-27 18:32 | 56.32962 | 2.04245 | 37381 ft | 488 kts | 153° |
| 2026-04-27 18:32 | 56.26823 | 2.09456 | 37373 ft | 487 kts | 153° |
| 2026-04-27 18:33 | 56.20689 | 2.14645 | 37373 ft | 487 kts | 153° |
| 2026-04-27 18:33 | 56.14555 | 2.19816 | 37370 ft | 487 kts | 153° |
| 2026-04-27 18:34 | 56.08421 | 2.24968 | 37371 ft | 487 kts | 153° |
| 2026-04-27 18:34 | 56.02286 | 2.30102 | 37370 ft | 486 kts | 153° |
| 2026-04-27 18:35 | 55.96155 | 2.35215 | 37367 ft | 486 kts | 153° |
| 2026-04-27 18:35 | 55.90024 | 2.40311 | 37365 ft | 486 kts | 153° |
| 2026-04-27 18:36 | 55.83894 | 2.45388 | 37363 ft | 486 kts | 153° |
| 2026-04-27 18:36 | 55.77771 | 2.50441 | 37362 ft | 485 kts | 154° |
| 2026-04-27 18:37 | 55.71642 | 2.55482 | 37360 ft | 485 kts | 154° |
| 2026-04-27 18:37 | 55.65520 | 2.60500 | 37360 ft | 484 kts | 154° |
| 2026-04-27 18:38 | 55.59403 | 2.65495 | 37353 ft | 484 kts | 154° |
| 2026-04-27 18:38 | 55.53328 | 2.70441 | 37360 ft | 484 kts | 154° |
| 2026-04-27 18:39 | 55.47215 | 2.75399 | 37353 ft | 483 kts | 154° |
| 2026-04-27 18:39 | 55.41104 | 2.80339 | 37355 ft | 483 kts | 154° |
| 2026-04-27 18:40 | 55.34996 | 2.85261 | 37352 ft | 483 kts | 154° |
| 2026-04-27 18:40 | 55.28896 | 2.90158 | 37348 ft | 482 kts | 154° |
| 2026-04-27 18:41 | 55.22790 | 2.95044 | 37350 ft | 482 kts | 155° |
| 2026-04-27 18:41 | 55.16688 | 2.99910 | 37350 ft | 482 kts | 155° |
| 2026-04-27 18:42 | 55.11833 | 3.03770 | 37337 ft | 482 kts | 155° |
| 2026-04-27 18:42 | 55.04682 | 3.09437 | 37343 ft | 481 kts | 155° |
| 2026-04-27 18:43 | 54.98576 | 3.14258 | 37341 ft | 481 kts | 155° |
| 2026-04-27 18:43 | 54.92478 | 3.19056 | 37329 ft | 481 kts | 155° |
| 2026-04-27 18:44 | 54.86380 | 3.23839 | 37337 ft | 481 kts | 155° |
| 2026-04-27 18:44 | 54.80284 | 3.28604 | 37329 ft | 481 kts | 155° |
| 2026-04-27 18:45 | 54.74186 | 3.33354 | 37324 ft | 480 kts | 156° |
| 2026-04-27 18:45 | 54.68091 | 3.38087 | 37327 ft | 480 kts | 156° |
| 2026-04-27 18:46 | 54.61997 | 3.42804 | 37321 ft | 480 kts | 156° |
| 2026-04-27 18:46 | 54.55898 | 3.47508 | 37319 ft | 480 kts | 156° |
| 2026-04-27 18:47 | 54.49798 | 3.52198 | 37320 ft | 480 kts | 156° |
| 2026-04-27 18:47 | 54.43736 | 3.56844 | 37319 ft | 480 kts | 156° |
| 2026-04-27 18:48 | 54.37640 | 3.61500 | 37320 ft | 480 kts | 156° |
| 2026-04-27 18:48 | 54.31535 | 3.66148 | 37316 ft | 480 kts | 156° |
| 2026-04-27 18:49 | 54.25433 | 3.70779 | 37317 ft | 479 kts | 157° |
| 2026-04-27 18:49 | 54.19334 | 3.75392 | 37316 ft | 479 kts | 157° |
| 2026-04-27 18:50 | 54.13230 | 3.79995 | 37314 ft | 479 kts | 157° |
| 2026-04-27 18:50 | 54.07126 | 3.84582 | 37314 ft | 479 kts | 157° |
| 2026-04-27 18:51 | 54.01025 | 3.89152 | 37315 ft | 479 kts | 157° |
| 2026-04-27 18:51 | 53.94967 | 3.93677 | 37311 ft | 479 kts | 158° |
| 2026-04-27 18:52 | 53.88868 | 3.98216 | 37313 ft | 479 kts | 158° |
| 2026-04-27 18:53 | 53.79716 | 4.05001 | 37310 ft | 478 kts | 158° |
| 2026-04-27 18:53 | 53.73621 | 4.09501 | 37308 ft | 478 kts | 158° |
| 2026-04-27 18:54 | 53.67522 | 4.13991 | 37307 ft | 478 kts | 158° |
| 2026-04-27 18:54 | 53.61422 | 4.18467 | 37308 ft | 478 kts | 158° |
| 2026-04-27 18:55 | 53.55386 | 4.22884 | 37295 ft | 470 kts | 158° |
| 2026-04-27 18:55 | 53.49361 | 4.27276 | 37321 ft | 474 kts | 158° |
| 2026-04-27 18:56 | 53.44256 | 4.30985 | 37313 ft | 479 kts | 158° |
| 2026-04-27 18:56 | 53.38163 | 4.35403 | 37305 ft | 482 kts | 158° |
| 2026-04-27 18:57 | 53.32004 | 4.39854 | 37307 ft | 483 kts | 159° |
| 2026-04-27 18:57 | 53.25835 | 4.44299 | 37293 ft | 483 kts | 159° |
| 2026-04-27 18:58 | 53.19672 | 4.48726 | 37288 ft | 482 kts | 159° |
| 2026-04-27 18:58 | 53.13510 | 4.53138 | 37280 ft | 481 kts | 159° |
| 2026-04-27 18:59 | 53.07362 | 4.57526 | 37272 ft | 480 kts | 159° |
| 2026-04-27 18:59 | 53.01227 | 4.61891 | 37223 ft | 478 kts | 159° |
| 2026-04-27 19:00 | 52.95116 | 4.66226 | 37123 ft | 477 kts | 159° |
| 2026-04-27 19:00 | 52.89020 | 4.70536 | 37019 ft | 476 kts | 160° |
| 2026-04-27 19:01 | 52.82926 | 4.74831 | 36908 ft | 476 kts | 160° |
| 2026-04-27 19:01 | 52.76624 | 4.77345 | 36692 ft | 463 kts | 188° |
| 2026-04-27 19:01 | 52.73456 | 4.76441 | 36197 ft | 462 kts | 198° |
| 2026-04-27 19:02 | 52.70387 | 4.74986 | 35726 ft | 456 kts | 201° |
| 2026-04-27 19:02 | 52.67380 | 4.73419 | 35238 ft | 451 kts | 202° |
| 2026-04-27 19:02 | 52.64409 | 4.71841 | 34677 ft | 447 kts | 202° |
| 2026-04-27 19:02 | 52.61458 | 4.70273 | 34060 ft | 444 kts | 202° |
| 2026-04-27 19:03 | 52.58531 | 4.68720 | 33371 ft | 440 kts | 202° |
| 2026-04-27 19:03 | 52.55516 | 4.67785 | 32648 ft | 448 kts | 184° |
| 2026-04-27 19:03 | 52.52438 | 4.68673 | 32017 ft | 457 kts | 163° |
| 2026-04-27 19:03 | 52.50550 | 4.70252 | 31591 ft | 463 kts | 150° |
| 2026-04-27 19:04 | 52.47553 | 4.75380 | 30796 ft | 473 kts | 129° |
| 2026-04-27 19:04 | 52.45798 | 4.79981 | 30188 ft | 477 kts | 126° |
| 2026-04-27 19:04 | 52.43994 | 4.84567 | 29472 ft | 480 kts | 128° |
| 2026-04-27 19:04 | 52.42109 | 4.89103 | 28772 ft | 484 kts | 129° |
| 2026-04-27 19:05 | 52.40176 | 4.93629 | 28089 ft | 487 kts | 129° |
| 2026-04-27 19:05 | 52.38225 | 4.98161 | 27420 ft | 487 kts | 129° |
| 2026-04-27 19:05 | 52.36275 | 5.02706 | 26763 ft | 488 kts | 129° |
| 2026-04-27 19:05 | 52.34333 | 5.07243 | 26122 ft | 488 kts | 128° |
| 2026-04-27 19:06 | 52.32467 | 5.11888 | 25491 ft | 490 kts | 124° |
| 2026-04-27 19:06 | 52.30771 | 5.16724 | 24870 ft | 490 kts | 122° |
| 2026-04-27 19:06 | 52.29138 | 5.21599 | 24281 ft | 488 kts | 121° |
| 2026-04-27 19:06 | 52.27534 | 5.26455 | 23663 ft | 482 kts | 121° |
| 2026-04-27 19:07 | 52.25951 | 5.31226 | 22967 ft | 474 kts | 121° |
| 2026-04-27 19:07 | 52.24382 | 5.35904 | 22274 ft | 466 kts | 121° |
| 2026-04-27 19:07 | 52.22845 | 5.40438 | 21607 ft | 461 kts | 121° |
| 2026-04-27 19:07 | 52.21271 | 5.45039 | 20962 ft | 456 kts | 121° |
| 2026-04-27 19:08 | 52.19748 | 5.49467 | 20462 ft | 453 kts | 121° |
| 2026-04-27 19:08 | 52.18198 | 5.53957 | 20311 ft | 455 kts | 121° |
| 2026-04-27 19:08 | 52.16646 | 5.58444 | 20232 ft | 454 kts | 121° |
| 2026-04-27 19:08 | 52.15095 | 5.62925 | 20219 ft | 453 kts | 121° |
| 2026-04-27 19:09 | 52.13548 | 5.67385 | 20215 ft | 453 kts | 121° |
| 2026-04-27 19:09 | 52.11996 | 5.71856 | 20207 ft | 453 kts | 121° |
| 2026-04-27 19:09 | 52.10445 | 5.76316 | 20209 ft | 454 kts | 121° |
| 2026-04-27 19:09 | 52.08888 | 5.80785 | 20103 ft | 455 kts | 121° |
| 2026-04-27 19:10 | 52.07327 | 5.85261 | 19675 ft | 453 kts | 121° |
| 2026-04-27 19:10 | 52.05781 | 5.89684 | 19282 ft | 447 kts | 121° |
| 2026-04-27 19:10 | 52.04250 | 5.94059 | 18899 ft | 444 kts | 121° |
| 2026-04-27 19:10 | 52.03239 | 5.96945 | 18651 ft | 443 kts | 121° |
| 2026-04-27 19:11 | 52.01199 | 6.02750 | 18089 ft | 441 kts | 121° |
| 2026-04-27 19:11 | 51.99681 | 6.07062 | 17660 ft | 439 kts | 121° |
| 2026-04-27 19:11 | 51.98166 | 6.11350 | 17235 ft | 437 kts | 121° |
| 2026-04-27 19:11 | 51.96605 | 6.15564 | 16833 ft | 434 kts | 123° |
| 2026-04-27 19:12 | 51.94935 | 6.19603 | 16483 ft | 430 kts | 127° |
| 2026-04-27 19:12 | 51.93114 | 6.23397 | 16152 ft | 426 kts | 131° |
| 2026-04-27 19:12 | 51.91290 | 6.26605 | 15809 ft | 423 kts | 136° |
| 2026-04-27 19:12 | 51.89574 | 6.29156 | 15484 ft | 422 kts | 141° |